map of BJV home
Great Circle Mapper logo
BJV - Airport
Location
City:  Bodrum, Mugla, Turkey
Name:Milas
ICAO:LTFE
IATA:BJV

Details
Type:Airport (Aerodrome, Airfield)
Use:Public/Civil, International (customs port of entry)
Latitude:3715'02"N (37.250611)
Longitude:2739'52"E (27.664311)
Datum:WGS 1984
Elevation:21 ft (6 m)
Variation:4.71E (WMM2015 magnetic declination)
0.10 annual change
Runways:1
Longest:9842 × 148 ft (3000 × 45 m), paved

Time
Time Zone:UTC+2 (DST+3)
Local Time:

Weather
METAR:LTFE 260750Z 29007KT 260V320 9999 FEW035 30/20 Q1010 NOSIG RMK RWY10 27008KT
TAF:LTFE 251640Z 2518/2618 VRB02KT CAVOK
BECMG 2607/2609 26014KT FEW035
BECMG 2615/2618 VRB02KT CAVOK

Related Locations
Nearby:
Farthest:RVV: 11469 mi / 18458 km
Raivavae, Tubuai Islands, Austral Islands, PF

Find:

   beyond  
but within

Other Information
Maps:
NOTAMs:
Links:
Sources:

  
flag of Turkey   

Sectional Chart

Flight Planning
at skyvector.com

Satellite Image

Google Maps Satellite view

 

Copyright © 2004-2016 Karl L. Swartz. All rights reserved.
The Great Circle Mapper name and logo are trademarks of the Great Circle Mapper.
All other trademarks mentioned herein belong to their respective owners.
Please see credits for attibutions and further copyright information.

  Follow gcmap on Facebook Follow gcmap on Twitter Follow gcmap on Google+ GCmap on LinkedIn

hCard Microformat

Geo Microformat